Westwood, Louisiana
Current Conditions -  °F | °C
As of 10:53 AM on Thursday 30 Oct 2014 (Local Time) from KTVR Reporting Station
Clear Clear  
Wind Chill: 65°   Ceiling: Unl
Heat Index: 65°   Visibility: 10mi
Dew Point: 45°   Wind: 5mph
Humidity: 48%   Direction: NA
Pressure: 30.17"   Gusts: NA
Location:  32.1015°N, 91.2929°W
Report Text: KTVR 301553Z AUTO VRB04KT 10SM CLR 18/07 A3017 RMK AO2 SLP223 T01830072
Loading
Personal Weather Stations






























Interactive Weather Map
Tropical Storm Tracking
New forecast layout! Learn more

10-Day Weather Forecast

Advertisements
Track Severe Weather on mobile